sensor_id;sensor_type;location;lat;lon;timestamp;temperature;humidity
40638;DHT22;26336;44.696;10.622;2023-05-19T00:01:49;16.20;99.90
40638;DHT22;26336;44.696;10.622;2023-05-19T00:04:53;16.20;99.90
40638;DHT22;26336;44.696;10.622;2023-05-19T00:07:58;16.20;99.90
40638;DHT22;26336;44.696;10.622;2023-05-19T00:11:02;16.00;99.90
40638;DHT22;26336;44.696;10.622;2023-05-19T00:14:07;16.00;99.90
40638;DHT22;26336;44.696;10.622;2023-05-19T00:17:11;16.00;99.90
40638;DHT22;26336;44.696;10.622;2023-05-19T00:20:15;16.00;99.90
40638;DHT22;26336;44.696;10.622;2023-05-19T00:23:19;16.10;99.90
40638;DHT22;26336;44.696;10.622;2023-05-19T00:26:23;16.10;99.90
40638;DHT22;26336;44.696;10.622;2023-05-19T00:29:40;16.10;99.90
40638;DHT22;26336;44.696;10.622;2023-05-19T00:32:47;16.00;99.90
40638;DHT22;26336;44.696;10.622;2023-05-19T00:35:51;16.00;99.90
40638;DHT22;26336;44.696;10.622;2023-05-19T00:38:55;16.00;99.90
40638;DHT22;26336;44.696;10.622;2023-05-19T00:41:59;15.90;99.90
40638;DHT22;26336;44.696;10.622;2023-05-19T00:45:03;15.90;99.90
40638;DHT22;26336;44.696;10.622;2023-05-19T00:48:07;15.90;99.90
40638;DHT22;26336;44.696;10.622;2023-05-19T00:51:12;15.90;99.90
40638;DHT22;26336;44.696;10.622;2023-05-19T00:54:19;16.00;99.90
40638;DHT22;26336;44.696;10.622;2023-05-19T00:57:23;16.00;99.90
40638;DHT22;26336;44.696;10.622;2023-05-19T01:00:27;16.00;99.90
40638;DHT22;26336;44.696;10.622;2023-05-19T01:03:33;16.10;99.90
40638;DHT22;26336;44.696;10.622;2023-05-19T01:06:40;16.10;99.90
40638;DHT22;26336;44.696;10.622;2023-05-19T01:09:44;16.00;99.90
40638;DHT22;26336;44.696;10.622;2023-05-19T01:12:49;16.00;99.90
40638;DHT22;26336;44.696;10.622;2023-05-19T01:16:13;16.00;99.90
40638;DHT22;26336;44.696;10.622;2023-05-19T01:28:57;16.10;99.90
40638;DHT22;26336;44.696;10.622;2023-05-19T01:32:05;16.10;99.90
40638;DHT22;26336;44.696;10.622;2023-05-19T01:35:11;16.00;99.90
40638;DHT22;26336;44.696;10.622;2023-05-19T01:38:18;16.00;99.90
40638;DHT22;26336;44.696;10.622;2023-05-19T01:41:22;16.00;99.90
40638;DHT22;26336;44.696;10.622;2023-05-19T01:44:28;15.90;99.90
40638;DHT22;26336;44.696;10.622;2023-05-19T01:47:35;15.90;99.90
40638;DHT22;26336;44.696;10.622;2023-05-19T01:50:40;15.90;99.90
40638;DHT22;26336;44.696;10.622;2023-05-19T01:53:44;15.90;99.90
40638;DHT22;26336;44.696;10.622;2023-05-19T02:03:28;15.90;99.90
40638;DHT22;26336;44.696;10.622;2023-05-19T02:09:55;15.90;99.90
40638;DHT22;26336;44.696;10.622;2023-05-19T02:13:04;15.80;99.90
40638;DHT22;26336;44.696;10.622;2023-05-19T02:16:09;15.80;99.90
40638;DHT22;26336;44.696;10.622;2023-05-19T02:19:23;15.80;99.90
40638;DHT22;26336;44.696;10.622;2023-05-19T02:22:27;15.80;99.90
40638;DHT22;26336;44.696;10.622;2023-05-19T02:25:31;15.70;99.90
40638;DHT22;26336;44.696;10.622;2023-05-19T02:28:36;15.80;99.90
40638;DHT22;26336;44.696;10.622;2023-05-19T02:31:40;15.80;99.90
40638;DHT22;26336;44.696;10.622;2023-05-19T02:34:43;15.80;99.90
40638;DHT22;26336;44.696;10.622;2023-05-19T02:37:47;15.80;99.90
40638;DHT22;26336;44.696;10.622;2023-05-19T02:40:51;15.80;99.90
40638;DHT22;26336;44.696;10.622;2023-05-19T02:43:55;15.90;99.90
40638;DHT22;26336;44.696;10.622;2023-05-19T02:46:58;15.80;99.90
40638;DHT22;26336;44.696;10.622;2023-05-19T02:50:03;15.80;99.90
40638;DHT22;26336;44.696;10.622;2023-05-19T02:53:06;15.80;99.90
40638;DHT22;26336;44.696;10.622;2023-05-19T02:56:10;15.80;99.90
40638;DHT22;26336;44.696;10.622;2023-05-19T02:59:13;15.70;99.90
40638;DHT22;26336;44.696;10.622;2023-05-19T03:02:17;15.80;99.90
40638;DHT22;26336;44.696;10.622;2023-05-19T03:05:21;15.80;99.90
40638;DHT22;26336;44.696;10.622;2023-05-19T03:08:24;15.70;99.90
40638;DHT22;26336;44.696;10.622;2023-05-19T03:11:28;15.70;99.90
40638;DHT22;26336;44.696;10.622;2023-05-19T03:14:33;15.80;99.90
40638;DHT22;26336;44.696;10.622;2023-05-19T03:17:37;15.80;99.90
40638;DHT22;26336;44.696;10.622;2023-05-19T03:20:41;15.70;99.90
40638;DHT22;26336;44.696;10.622;2023-05-19T03:23:47;15.70;99.90
40638;DHT22;26336;44.696;10.622;2023-05-19T03:26:51;15.70;99.90
40638;DHT22;26336;44.696;10.622;2023-05-19T03:29:55;15.70;99.90
40638;DHT22;26336;44.696;10.622;2023-05-19T03:32:59;15.70;99.90
40638;DHT22;26336;44.696;10.622;2023-05-19T03:36:04;15.70;99.90
40638;DHT22;26336;44.696;10.622;2023-05-19T03:39:11;15.70;99.90
40638;DHT22;26336;44.696;10.622;2023-05-19T03:42:16;15.70;99.90
40638;DHT22;26336;44.696;10.622;2023-05-19T03:45:20;15.70;99.90
40638;DHT22;26336;44.696;10.622;2023-05-19T03:48:27;15.60;99.90
40638;DHT22;26336;44.696;10.622;2023-05-19T03:51:49;15.60;99.90
40638;DHT22;26336;44.696;10.622;2023-05-19T03:55:01;15.60;99.90
40638;DHT22;26336;44.696;10.622;2023-05-19T03:58:05;15.60;99.90
40638;DHT22;26336;44.696;10.622;2023-05-19T04:01:09;15.50;99.90
40638;DHT22;26336;44.696;10.622;2023-05-19T04:04:13;15.60;99.90
40638;DHT22;26336;44.696;10.622;2023-05-19T04:07:16;15.60;99.90
40638;DHT22;26336;44.696;10.622;2023-05-19T04:10:20;15.60;99.90
40638;DHT22;26336;44.696;10.622;2023-05-19T04:13:24;15.60;99.90
40638;DHT22;26336;44.696;10.622;2023-05-19T04:16:28;15.70;99.90
40638;DHT22;26336;44.696;10.622;2023-05-19T04:19:32;15.60;99.90
40638;DHT22;26336;44.696;10.622;2023-05-19T04:22:36;15.60;99.90
40638;DHT22;26336;44.696;10.622;2023-05-19T04:25:39;15.60;99.90
40638;DHT22;26336;44.696;10.622;2023-05-19T04:28:44;15.60;99.90
40638;DHT22;26336;44.696;10.622;2023-05-19T04:31:48;15.60;99.90
40638;DHT22;26336;44.696;10.622;2023-05-19T04:34:51;15.60;99.90
40638;DHT22;26336;44.696;10.622;2023-05-19T04:38:00;15.60;99.90
40638;DHT22;26336;44.696;10.622;2023-05-19T04:41:07;15.60;99.90
40638;DHT22;26336;44.696;10.622;2023-05-19T04:44:16;15.50;99.90
40638;DHT22;26336;44.696;10.622;2023-05-19T04:47:22;15.30;99.90
40638;DHT22;26336;44.696;10.622;2023-05-19T04:50:30;15.20;99.90
40638;DHT22;26336;44.696;10.622;2023-05-19T04:53:34;15.20;99.90
40638;DHT22;26336;44.696;10.622;2023-05-19T04:56:39;15.10;99.90
40638;DHT22;26336;44.696;10.622;2023-05-19T04:59:44;15.10;99.90
40638;DHT22;26336;44.696;10.622;2023-05-19T05:02:48;15.10;99.90
40638;DHT22;26336;44.696;10.622;2023-05-19T05:05:55;15.10;99.90
40638;DHT22;26336;44.696;10.622;2023-05-19T05:09:00;15.10;99.90
40638;DHT22;26336;44.696;10.622;2023-05-19T05:12:06;15.10;99.90
40638;DHT22;26336;44.696;10.622;2023-05-19T05:15:11;15.10;99.90
40638;DHT22;26336;44.696;10.622;2023-05-19T05:18:15;15.20;99.90
40638;DHT22;26336;44.696;10.622;2023-05-19T05:21:19;15.20;99.90
40638;DHT22;26336;44.696;10.622;2023-05-19T05:24:23;15.30;99.90
40638;DHT22;26336;44.696;10.622;2023-05-19T05:27:31;15.30;99.90
40638;DHT22;26336;44.696;10.622;2023-05-19T05:30:35;15.30;99.90
40638;DHT22;26336;44.696;10.622;2023-05-19T05:33:40;15.40;99.90
40638;DHT22;26336;44.696;10.622;2023-05-19T05:36:45;15.30;99.90
40638;DHT22;26336;44.696;10.622;2023-05-19T05:39:48;15.40;99.90
40638;DHT22;26336;44.696;10.622;2023-05-19T05:42:52;15.30;99.90
40638;DHT22;26336;44.696;10.622;2023-05-19T05:45:58;15.30;99.90
40638;DHT22;26336;44.696;10.622;2023-05-19T05:49:02;15.30;99.90
40638;DHT22;26336;44.696;10.622;2023-05-19T05:52:07;15.30;99.90
40638;DHT22;26336;44.696;10.622;2023-05-19T05:55:22;15.30;99.90
40638;DHT22;26336;44.696;10.622;2023-05-19T05:58:26;15.30;99.90
40638;DHT22;26336;44.696;10.622;2023-05-19T06:01:31;15.30;99.90
40638;DHT22;26336;44.696;10.622;2023-05-19T06:04:35;15.30;99.90
40638;DHT22;26336;44.696;10.622;2023-05-19T06:07:40;15.20;99.90
40638;DHT22;26336;44.696;10.622;2023-05-19T06:10:45;15.20;99.90
40638;DHT22;26336;44.696;10.622;2023-05-19T06:13:50;15.20;99.90
40638;DHT22;26336;44.696;10.622;2023-05-19T06:17:10;15.20;99.90
40638;DHT22;26336;44.696;10.622;2023-05-19T06:20:14;15.20;99.90
40638;DHT22;26336;44.696;10.622;2023-05-19T06:23:18;15.20;99.90
40638;DHT22;26336;44.696;10.622;2023-05-19T06:26:22;15.20;99.90
40638;DHT22;26336;44.696;10.622;2023-05-19T06:29:26;15.20;99.90
40638;DHT22;26336;44.696;10.622;2023-05-19T06:32:31;15.20;99.90
40638;DHT22;26336;44.696;10.622;2023-05-19T06:35:37;15.20;99.90
40638;DHT22;26336;44.696;10.622;2023-05-19T06:38:40;15.20;99.90
40638;DHT22;26336;44.696;10.622;2023-05-19T06:41:44;15.20;99.90
40638;DHT22;26336;44.696;10.622;2023-05-19T06:45:00;15.20;99.90
40638;DHT22;26336;44.696;10.622;2023-05-19T06:48:04;15.20;99.90
40638;DHT22;26336;44.696;10.622;2023-05-19T06:51:09;15.20;99.90
40638;DHT22;26336;44.696;10.622;2023-05-19T06:54:15;15.20;99.90
40638;DHT22;26336;44.696;10.622;2023-05-19T06:57:19;15.20;99.90
40638;DHT22;26336;44.696;10.622;2023-05-19T07:00:23;15.20;99.90
40638;DHT22;26336;44.696;10.622;2023-05-19T07:03:28;15.10;99.90
40638;DHT22;26336;44.696;10.622;2023-05-19T07:06:33;15.10;99.90
40638;DHT22;26336;44.696;10.622;2023-05-19T07:09:37;15.10;99.90
40638;DHT22;26336;44.696;10.622;2023-05-19T07:12:41;15.10;99.90
40638;DHT22;26336;44.696;10.622;2023-05-19T07:15:45;15.10;99.90
40638;DHT22;26336;44.696;10.622;2023-05-19T07:18:52;15.20;99.90
40638;DHT22;26336;44.696;10.622;2023-05-19T07:21:56;15.10;99.90
40638;DHT22;26336;44.696;10.622;2023-05-19T07:25:01;15.10;99.90
40638;DHT22;26336;44.696;10.622;2023-05-19T07:28:06;15.20;99.90
40638;DHT22;26336;44.696;10.622;2023-05-19T07:31:10;15.00;99.90
40638;DHT22;26336;44.696;10.622;2023-05-19T07:34:13;15.10;99.90
40638;DHT22;26336;44.696;10.622;2023-05-19T07:37:17;15.10;99.90
40638;DHT22;26336;44.696;10.622;2023-05-19T07:40:20;15.10;99.90
40638;DHT22;26336;44.696;10.622;2023-05-19T07:43:24;15.00;99.90
40638;DHT22;26336;44.696;10.622;2023-05-19T07:46:28;15.00;99.90
40638;DHT22;26336;44.696;10.622;2023-05-19T07:49:31;14.90;99.90
40638;DHT22;26336;44.696;10.622;2023-05-19T07:52:34;14.90;99.90
40638;DHT22;26336;44.696;10.622;2023-05-19T07:55:41;14.80;99.90
40638;DHT22;26336;44.696;10.622;2023-05-19T07:58:44;14.90;99.90
40638;DHT22;26336;44.696;10.622;2023-05-19T08:01:48;14.80;99.90
40638;DHT22;26336;44.696;10.622;2023-05-19T08:04:51;14.80;99.90
40638;DHT22;26336;44.696;10.622;2023-05-19T08:07:56;14.90;99.90
40638;DHT22;26336;44.696;10.622;2023-05-19T08:11:03;14.90;99.90
40638;DHT22;26336;44.696;10.622;2023-05-19T08:14:06;14.90;99.90
40638;DHT22;26336;44.696;10.622;2023-05-19T08:17:10;15.00;99.90
40638;DHT22;26336;44.696;10.622;2023-05-19T08:20:13;15.00;99.90
40638;DHT22;26336;44.696;10.622;2023-05-19T08:23:17;15.00;99.90
40638;DHT22;26336;44.696;10.622;2023-05-19T08:26:20;15.10;99.90
40638;DHT22;26336;44.696;10.622;2023-05-19T08:29:25;15.10;99.90
40638;DHT22;26336;44.696;10.622;2023-05-19T08:32:28;15.20;99.90
40638;DHT22;26336;44.696;10.622;2023-05-19T08:35:32;15.10;99.90
40638;DHT22;26336;44.696;10.622;2023-05-19T08:38:35;15.20;99.90
40638;DHT22;26336;44.696;10.622;2023-05-19T08:41:39;15.20;99.90
40638;DHT22;26336;44.696;10.622;2023-05-19T08:44:42;15.20;99.90
40638;DHT22;26336;44.696;10.622;2023-05-19T08:47:46;15.10;99.90
40638;DHT22;26336;44.696;10.622;2023-05-19T08:54:03;15.00;99.90
40638;DHT22;26336;44.696;10.622;2023-05-19T08:57:09;15.00;99.90
40638;DHT22;26336;44.696;10.622;2023-05-19T09:00:13;15.10;99.90
40638;DHT22;26336;44.696;10.622;2023-05-19T09:03:18;15.10;99.90
40638;DHT22;26336;44.696;10.622;2023-05-19T09:06:22;15.10;99.90
40638;DHT22;26336;44.696;10.622;2023-05-19T09:09:27;15.00;99.90
40638;DHT22;26336;44.696;10.622;2023-05-19T09:12:32;15.00;99.90
40638;DHT22;26336;44.696;10.622;2023-05-19T09:15:35;15.00;99.90
40638;DHT22;26336;44.696;10.622;2023-05-19T09:18:54;15.10;99.90
40638;DHT22;26336;44.696;10.622;2023-05-19T09:22:02;15.00;99.90
40638;DHT22;26336;44.696;10.622;2023-05-19T09:25:16;15.00;99.90
40638;DHT22;26336;44.696;10.622;2023-05-19T09:28:23;15.00;99.90
40638;DHT22;26336;44.696;10.622;2023-05-19T09:31:29;15.00;99.90
40638;DHT22;26336;44.696;10.622;2023-05-19T09:34:34;15.00;99.90
40638;DHT22;26336;44.696;10.622;2023-05-19T09:37:42;15.00;99.90
40638;DHT22;26336;44.696;10.622;2023-05-19T09:40:47;15.00;99.90
40638;DHT22;26336;44.696;10.622;2023-05-19T09:43:57;14.90;99.90
40638;DHT22;26336;44.696;10.622;2023-05-19T09:47:01;14.80;99.90
40638;DHT22;26336;44.696;10.622;2023-05-19T09:50:09;14.60;99.90
40638;DHT22;26336;44.696;10.622;2023-05-19T09:53:15;14.60;99.90
40638;DHT22;26336;44.696;10.622;2023-05-19T09:56:19;14.70;99.90
40638;DHT22;26336;44.696;10.622;2023-05-19T09:59:26;14.70;99.90
40638;DHT22;26336;44.696;10.622;2023-05-19T10:02:33;14.70;99.90
40638;DHT22;26336;44.696;10.622;2023-05-19T10:05:37;14.60;99.90
40638;DHT22;26336;44.696;10.622;2023-05-19T10:08:41;14.70;99.90
40638;DHT22;26336;44.696;10.622;2023-05-19T10:11:44;14.70;99.90
40638;DHT22;26336;44.696;10.622;2023-05-19T10:14:48;14.80;99.90
40638;DHT22;26336;44.696;10.622;2023-05-19T10:17:52;14.80;99.90
40638;DHT22;26336;44.696;10.622;2023-05-19T10:20:56;14.80;99.90
40638;DHT22;26336;44.696;10.622;2023-05-19T10:24:00;14.70;99.90
40638;DHT22;26336;44.696;10.622;2023-05-19T10:27:07;14.60;99.90
40638;DHT22;26336;44.696;10.622;2023-05-19T10:30:31;14.60;99.90
40638;DHT22;26336;44.696;10.622;2023-05-19T10:33:59;14.50;99.90
40638;DHT22;26336;44.696;10.622;2023-05-19T10:40:08;14.50;99.90
40638;DHT22;26336;44.696;10.622;2023-05-19T10:46:35;14.40;99.90
40638;DHT22;26336;44.696;10.622;2023-05-19T10:49:39;14.40;99.90
40638;DHT22;26336;44.696;10.622;2023-05-19T10:52:43;14.30;99.90
40638;DHT22;26336;44.696;10.622;2023-05-19T10:55:55;14.40;99.90
40638;DHT22;26336;44.696;10.622;2023-05-19T10:58:59;14.40;99.90
40638;DHT22;26336;44.696;10.622;2023-05-19T11:02:03;14.40;99.90
40638;DHT22;26336;44.696;10.622;2023-05-19T11:05:07;14.40;99.90
40638;DHT22;26336;44.696;10.622;2023-05-19T11:08:11;14.30;99.90
40638;DHT22;26336;44.696;10.622;2023-05-19T11:11:15;14.30;99.90
40638;DHT22;26336;44.696;10.622;2023-05-19T11:14:20;14.30;99.90
40638;DHT22;26336;44.696;10.622;2023-05-19T11:17:24;14.30;99.90
40638;DHT22;26336;44.696;10.622;2023-05-19T11:20:28;14.30;99.90
40638;DHT22;26336;44.696;10.622;2023-05-19T11:23:32;14.30;99.90
40638;DHT22;26336;44.696;10.622;2023-05-19T11:26:40;14.30;99.90
40638;DHT22;26336;44.696;10.622;2023-05-19T11:29:47;14.30;99.90
40638;DHT22;26336;44.696;10.622;2023-05-19T11:32:51;14.20;99.90
40638;DHT22;26336;44.696;10.622;2023-05-19T11:35:56;14.20;99.90
40638;DHT22;26336;44.696;10.622;2023-05-19T11:39:00;14.30;99.90
40638;DHT22;26336;44.696;10.622;2023-05-19T11:42:05;14.30;99.90
40638;DHT22;26336;44.696;10.622;2023-05-19T11:45:08;14.30;99.90
40638;DHT22;26336;44.696;10.622;2023-05-19T11:48:12;14.40;99.90
40638;DHT22;26336;44.696;10.622;2023-05-19T11:51:19;14.40;99.90
40638;DHT22;26336;44.696;10.622;2023-05-19T11:54:27;14.40;99.90
40638;DHT22;26336;44.696;10.622;2023-05-19T11:58:41;14.40;99.90
40638;DHT22;26336;44.696;10.622;2023-05-19T12:01:44;14.40;99.90
40638;DHT22;26336;44.696;10.622;2023-05-19T12:04:49;14.30;99.90
40638;DHT22;26336;44.696;10.622;2023-05-19T12:07:53;14.30;99.90
40638;DHT22;26336;44.696;10.622;2023-05-19T12:10:57;14.40;99.90
40638;DHT22;26336;44.696;10.622;2023-05-19T12:14:00;14.30;99.90
40638;DHT22;26336;44.696;10.622;2023-05-19T12:17:14;14.30;99.90
40638;DHT22;26336;44.696;10.622;2023-05-19T12:20:18;14.40;99.90
40638;DHT22;26336;44.696;10.622;2023-05-19T12:23:22;14.40;99.90
40638;DHT22;26336;44.696;10.622;2023-05-19T12:26:27;14.40;99.90
40638;DHT22;26336;44.696;10.622;2023-05-19T12:29:30;14.40;99.90
40638;DHT22;26336;44.696;10.622;2023-05-19T12:32:34;14.40;99.90
40638;DHT22;26336;44.696;10.622;2023-05-19T12:35:38;14.40;99.90
40638;DHT22;26336;44.696;10.622;2023-05-19T12:38:42;14.40;99.90
40638;DHT22;26336;44.696;10.622;2023-05-19T12:41:46;14.40;99.90
40638;DHT22;26336;44.696;10.622;2023-05-19T12:44:50;14.40;99.90
40638;DHT22;26336;44.696;10.622;2023-05-19T12:47:55;14.40;99.90
40638;DHT22;26336;44.696;10.622;2023-05-19T12:50:59;14.50;99.90
40638;DHT22;26336;44.696;10.622;2023-05-19T12:54:03;14.50;99.90
40638;DHT22;26336;44.696;10.622;2023-05-19T12:57:10;14.50;99.90
40638;DHT22;26336;44.696;10.622;2023-05-19T13:00:14;14.60;99.90
40638;DHT22;26336;44.696;10.622;2023-05-19T13:03:19;14.70;99.90
40638;DHT22;26336;44.696;10.622;2023-05-19T13:06:24;14.60;99.90
40638;DHT22;26336;44.696;10.622;2023-05-19T13:09:28;14.60;99.90
40638;DHT22;26336;44.696;10.622;2023-05-19T13:12:31;14.50;99.90
40638;DHT22;26336;44.696;10.622;2023-05-19T13:15:36;14.40;99.90
40638;DHT22;26336;44.696;10.622;2023-05-19T13:18:40;14.50;99.90
40638;DHT22;26336;44.696;10.622;2023-05-19T13:21:43;14.50;99.90
40638;DHT22;26336;44.696;10.622;2023-05-19T13:24:49;14.50;99.90
40638;DHT22;26336;44.696;10.622;2023-05-19T13:27:55;14.50;99.90
40638;DHT22;26336;44.696;10.622;2023-05-19T13:31:01;14.50;99.90
40638;DHT22;26336;44.696;10.622;2023-05-19T13:34:05;14.60;99.90
40638;DHT22;26336;44.696;10.622;2023-05-19T13:37:09;14.60;99.90
40638;DHT22;26336;44.696;10.622;2023-05-19T13:40:13;14.60;99.90
40638;DHT22;26336;44.696;10.622;2023-05-19T13:43:18;14.50;99.90
40638;DHT22;26336;44.696;10.622;2023-05-19T13:46:21;14.50;99.90
40638;DHT22;26336;44.696;10.622;2023-05-19T13:49:24;14.40;99.90
40638;DHT22;26336;44.696;10.622;2023-05-19T13:52:28;14.50;99.90
40638;DHT22;26336;44.696;10.622;2023-05-19T13:55:31;14.50;99.90
40638;DHT22;26336;44.696;10.622;2023-05-19T13:58:35;14.50;99.90
40638;DHT22;26336;44.696;10.622;2023-05-19T14:01:38;14.40;99.90
40638;DHT22;26336;44.696;10.622;2023-05-19T14:04:42;14.30;99.90
40638;DHT22;26336;44.696;10.622;2023-05-19T14:07:46;14.30;99.90
40638;DHT22;26336;44.696;10.622;2023-05-19T14:10:49;14.30;99.90
40638;DHT22;26336;44.696;10.622;2023-05-19T14:13:52;14.40;99.90
40638;DHT22;26336;44.696;10.622;2023-05-19T14:16:56;14.40;99.90
40638;DHT22;26336;44.696;10.622;2023-05-19T14:20:00;14.40;99.90
40638;DHT22;26336;44.696;10.622;2023-05-19T14:23:04;14.50;99.90
40638;DHT22;26336;44.696;10.622;2023-05-19T14:26:08;14.50;99.90
40638;DHT22;26336;44.696;10.622;2023-05-19T14:29:11;14.50;99.90
40638;DHT22;26336;44.696;10.622;2023-05-19T14:32:15;14.50;99.90
40638;DHT22;26336;44.696;10.622;2023-05-19T14:35:18;14.40;99.90
40638;DHT22;26336;44.696;10.622;2023-05-19T14:38:22;14.50;99.90
40638;DHT22;26336;44.696;10.622;2023-05-19T14:41:25;14.50;99.90
40638;DHT22;26336;44.696;10.622;2023-05-19T14:44:30;14.50;99.90
40638;DHT22;26336;44.696;10.622;2023-05-19T14:47:35;14.50;99.90
40638;DHT22;26336;44.696;10.622;2023-05-19T14:50:38;14.50;99.90
40638;DHT22;26336;44.696;10.622;2023-05-19T14:53:42;14.50;99.90
40638;DHT22;26336;44.696;10.622;2023-05-19T14:56:46;14.50;99.90
40638;DHT22;26336;44.696;10.622;2023-05-19T14:59:50;14.60;99.90
40638;DHT22;26336;44.696;10.622;2023-05-19T15:02:54;14.70;99.90
40638;DHT22;26336;44.696;10.622;2023-05-19T15:05:58;14.70;99.90
40638;DHT22;26336;44.696;10.622;2023-05-19T15:09:05;14.70;99.90
40638;DHT22;26336;44.696;10.622;2023-05-19T15:12:08;14.70;99.90
40638;DHT22;26336;44.696;10.622;2023-05-19T15:15:12;14.70;99.90
40638;DHT22;26336;44.696;10.622;2023-05-19T15:18:18;14.60;99.90
40638;DHT22;26336;44.696;10.622;2023-05-19T15:21:21;14.60;99.90
40638;DHT22;26336;44.696;10.622;2023-05-19T15:24:25;14.60;99.90
40638;DHT22;26336;44.696;10.622;2023-05-19T15:27:29;14.70;99.90
40638;DHT22;26336;44.696;10.622;2023-05-19T15:30:33;14.70;99.90
40638;DHT22;26336;44.696;10.622;2023-05-19T15:33:36;14.70;99.90
40638;DHT22;26336;44.696;10.622;2023-05-19T15:36:40;14.80;99.90
40638;DHT22;26336;44.696;10.622;2023-05-19T15:39:43;14.80;99.90
40638;DHT22;26336;44.696;10.622;2023-05-19T15:42:47;14.80;99.90
40638;DHT22;26336;44.696;10.622;2023-05-19T15:45:51;14.90;99.90
40638;DHT22;26336;44.696;10.622;2023-05-19T15:48:57;14.80;99.90
40638;DHT22;26336;44.696;10.622;2023-05-19T15:52:00;14.80;99.90
40638;DHT22;26336;44.696;10.622;2023-05-19T15:55:04;14.90;99.90
40638;DHT22;26336;44.696;10.622;2023-05-19T15:58:08;14.80;99.90
40638;DHT22;26336;44.696;10.622;2023-05-19T16:01:12;14.90;99.90
40638;DHT22;26336;44.696;10.622;2023-05-19T16:04:16;14.90;99.90
40638;DHT22;26336;44.696;10.622;2023-05-19T16:07:20;14.90;99.90
40638;DHT22;26336;44.696;10.622;2023-05-19T16:10:25;14.80;99.90
40638;DHT22;26336;44.696;10.622;2023-05-19T16:13:29;14.90;99.90
40638;DHT22;26336;44.696;10.622;2023-05-19T16:16:33;14.90;99.90
40638;DHT22;26336;44.696;10.622;2023-05-19T16:19:36;14.80;99.90
40638;DHT22;26336;44.696;10.622;2023-05-19T16:22:40;14.70;99.90
40638;DHT22;26336;44.696;10.622;2023-05-19T16:25:44;14.60;99.90
40638;DHT22;26336;44.696;10.622;2023-05-19T16:28:48;14.60;99.90
40638;DHT22;26336;44.696;10.622;2023-05-19T16:31:51;14.60;99.90
40638;DHT22;26336;44.696;10.622;2023-05-19T16:34:54;14.60;99.90
40638;DHT22;26336;44.696;10.622;2023-05-19T16:37:58;14.70;99.90
40638;DHT22;26336;44.696;10.622;2023-05-19T16:41:02;14.70;99.90
40638;DHT22;26336;44.696;10.622;2023-05-19T16:44:07;14.70;99.90
40638;DHT22;26336;44.696;10.622;2023-05-19T16:47:10;14.70;99.90
40638;DHT22;26336;44.696;10.622;2023-05-19T16:50:14;14.80;99.90
40638;DHT22;26336;44.696;10.622;2023-05-19T16:53:17;14.70;99.90
40638;DHT22;26336;44.696;10.622;2023-05-19T16:56:21;14.70;99.90
40638;DHT22;26336;44.696;10.622;2023-05-19T16:59:25;14.70;99.90
40638;DHT22;26336;44.696;10.622;2023-05-19T17:02:29;14.70;99.90
40638;DHT22;26336;44.696;10.622;2023-05-19T17:05:33;14.70;99.90
40638;DHT22;26336;44.696;10.622;2023-05-19T17:08:38;14.70;99.90
40638;DHT22;26336;44.696;10.622;2023-05-19T17:11:41;14.70;99.90
40638;DHT22;26336;44.696;10.622;2023-05-19T17:14:45;14.80;99.90
40638;DHT22;26336;44.696;10.622;2023-05-19T17:17:49;14.80;99.90
40638;DHT22;26336;44.696;10.622;2023-05-19T17:20:52;14.90;99.90
40638;DHT22;26336;44.696;10.622;2023-05-19T17:23:56;14.90;99.90
40638;DHT22;26336;44.696;10.622;2023-05-19T17:26:59;14.80;99.90
40638;DHT22;26336;44.696;10.622;2023-05-19T17:30:03;14.70;99.90
40638;DHT22;26336;44.696;10.622;2023-05-19T17:33:06;14.70;99.90
40638;DHT22;26336;44.696;10.622;2023-05-19T17:36:10;14.70;99.90
40638;DHT22;26336;44.696;10.622;2023-05-19T17:39:13;14.70;99.90
40638;DHT22;26336;44.696;10.622;2023-05-19T17:42:17;14.80;99.90
40638;DHT22;26336;44.696;10.622;2023-05-19T17:45:21;14.70;99.90
40638;DHT22;26336;44.696;10.622;2023-05-19T17:48:24;14.80;99.90
40638;DHT22;26336;44.696;10.622;2023-05-19T17:51:28;14.90;99.90
40638;DHT22;26336;44.696;10.622;2023-05-19T17:54:33;14.80;99.90
40638;DHT22;26336;44.696;10.622;2023-05-19T17:57:38;14.90;99.90
40638;DHT22;26336;44.696;10.622;2023-05-19T18:00:42;14.80;99.90
40638;DHT22;26336;44.696;10.622;2023-05-19T18:03:46;14.90;99.90
40638;DHT22;26336;44.696;10.622;2023-05-19T18:06:51;14.90;99.90
40638;DHT22;26336;44.696;10.622;2023-05-19T18:09:55;14.90;99.90
40638;DHT22;26336;44.696;10.622;2023-05-19T18:13:04;15.00;99.90
40638;DHT22;26336;44.696;10.622;2023-05-19T18:16:08;15.00;99.90
40638;DHT22;26336;44.696;10.622;2023-05-19T18:19:15;15.00;99.90
40638;DHT22;26336;44.696;10.622;2023-05-19T18:22:19;14.80;99.90
40638;DHT22;26336;44.696;10.622;2023-05-19T18:25:23;14.80;99.90
40638;DHT22;26336;44.696;10.622;2023-05-19T18:28:27;14.80;99.90
40638;DHT22;26336;44.696;10.622;2023-05-19T18:31:32;14.80;99.90
40638;DHT22;26336;44.696;10.622;2023-05-19T18:34:35;14.90;99.90
40638;DHT22;26336;44.696;10.622;2023-05-19T18:37:39;14.90;99.90
40638;DHT22;26336;44.696;10.622;2023-05-19T18:40:43;15.00;99.90
40638;DHT22;26336;44.696;10.622;2023-05-19T18:43:46;15.00;99.90
40638;DHT22;26336;44.696;10.622;2023-05-19T18:46:50;15.10;99.90
40638;DHT22;26336;44.696;10.622;2023-05-19T18:49:54;15.10;99.90
40638;DHT22;26336;44.696;10.622;2023-05-19T18:53:00;15.10;99.90
40638;DHT22;26336;44.696;10.622;2023-05-19T18:56:06;15.10;99.90
40638;DHT22;26336;44.696;10.622;2023-05-19T18:59:10;15.20;99.90
40638;DHT22;26336;44.696;10.622;2023-05-19T19:02:14;15.20;99.90
40638;DHT22;26336;44.696;10.622;2023-05-19T19:05:41;15.20;99.90
40638;DHT22;26336;44.696;10.622;2023-05-19T19:08:45;15.20;99.90
40638;DHT22;26336;44.696;10.622;2023-05-19T19:11:49;15.20;99.90
40638;DHT22;26336;44.696;10.622;2023-05-19T19:14:53;15.20;99.90
40638;DHT22;26336;44.696;10.622;2023-05-19T19:17:57;15.20;99.90
40638;DHT22;26336;44.696;10.622;2023-05-19T19:21:03;15.10;99.90
40638;DHT22;26336;44.696;10.622;2023-05-19T19:24:08;15.10;99.90
40638;DHT22;26336;44.696;10.622;2023-05-19T19:27:12;15.10;99.90
40638;DHT22;26336;44.696;10.622;2023-05-19T19:30:18;15.10;99.90
40638;DHT22;26336;44.696;10.622;2023-05-19T19:33:22;15.10;99.90
40638;DHT22;26336;44.696;10.622;2023-05-19T19:36:27;15.10;99.90
40638;DHT22;26336;44.696;10.622;2023-05-19T19:39:31;15.10;99.90